Time;durP1;ratioP1;P1;durP2;ratioP2;P2;SDS_P1;SDS_P2;PMS_P1;PMS_P2;Temp;Humidity;BMP_temperature;BMP_pressure;BME280_temperature;BME280_humidity;BME280_pressure;Samples;Min_cycle;Max_cycle;Signal;HPM_P1;HPM_P2
2023/04/02 00:01:49;;;;;;;;;6.67;5.33;;;;;11.96;100.00;100830.50;4980855;28;45762;-85
2023/04/02 00:04:25;;;;;;;;;4.00;4.00;;;;;11.94;100.00;100832.59;4980479;28;46252;-83
2023/04/02 00:07:29;;;;;;;;;12.00;8.00;;;;;11.97;100.00;100836.84;4998204;28;45732;-83
2023/04/02 00:09:56;;;;;;;;;6.00;6.00;;;;;11.88;100.00;100822.44;5000874;28;45424;-83
2023/04/02 00:12:22;;;;;;;;;8.67;6.00;;;;;11.97;100.00;100842.34;5004423;28;45740;-82
2023/04/02 00:14:51;;;;;;;;;5.33;5.33;;;;;11.96;100.00;100835.13;5006143;28;46350;-84
2023/04/02 00:17:18;;;;;;;;;9.00;6.67;;;;;11.88;100.00;100844.44;5002207;28;45811;-84
2023/04/02 00:19:53;;;;;;;;;3.00;3.00;;;;;11.90;100.00;100835.97;5004015;28;45828;-84
2023/04/02 00:22:23;;;;;;;;;6.67;6.00;;;;;11.86;100.00;100843.81;5010066;28;46037;-83
2023/04/02 00:24:52;;;;;;;;;4.00;4.00;;;;;11.79;100.00;100845.72;5001533;28;45944;-85
2023/04/02 00:27:18;;;;;;;;;6.67;5.67;;;;;11.81;100.00;100849.09;4978807;28;46108;-84
2023/04/02 00:29:46;;;;;;;;;6.67;6.67;;;;;11.76;100.00;100849.75;5000759;28;45543;-85
2023/04/02 00:32:19;;;;;;;;;8.00;5.00;;;;;11.81;100.00;100851.84;4984566;28;45812;-82
2023/04/02 00:34:45;;;;;;;;;8.33;5.67;;;;;11.80;100.00;100864.75;4973788;28;47354;-82
2023/04/02 00:37:22;;;;;;;;;9.67;6.67;;;;;11.70;100.00;100856.09;4993765;28;45776;-82
2023/04/02 00:39:49;;;;;;;;;5.00;3.33;;;;;11.67;100.00;100859.28;4995291;28;45858;-87
2023/04/02 00:42:17;;;;;;;;;8.33;5.00;;;;;11.69;100.00;100861.81;4994828;28;46108;-85
2023/04/02 00:44:44;;;;;;;;;7.00;6.00;;;;;11.61;100.00;100863.72;5010425;28;46226;-85
2023/04/02 00:47:36;;;;;;;;;7.00;4.00;;;;;11.58;100.00;100866.88;4995282;28;45943;-84
2023/04/02 00:50:18;;;;;;;;;6.67;5.00;;;;;11.60;100.00;100863.91;4992502;28;45498;-85
2023/04/02 00:52:47;;;;;;;;;5.00;4.67;;;;;11.67;100.00;100873.00;4991070;28;47152;-85
2023/04/02 00:55:23;;;;;;;;;6.00;6.00;;;;;11.62;100.00;100870.06;4998898;28;45522;-86
2023/04/02 00:57:50;;;;;;;;;7.67;7.00;;;;;11.44;100.00;100848.75;4999999;28;45798;-86
2023/04/02 01:00:32;;;;;;;;;10.33;5.67;;;;;11.62;100.00;100864.56;4997194;28;45405;-84
2023/04/02 01:03:16;;;;;;;;;6.67;5.33;;;;;11.54;100.00;100871.13;5008386;28;44865;-83
2023/04/02 01:05:49;;;;;;;;;5.00;5.00;;;;;11.50;100.00;100875.34;5008000;28;46237;-83
2023/04/02 01:08:36;;;;;;;;;7.00;6.00;;;;;11.50;100.00;100875.34;4989243;28;45340;-85
2023/04/02 01:11:12;;;;;;;;;6.33;5.33;;;;;11.55;100.00;100885.69;4979931;28;45874;-84
2023/04/02 01:13:57;;;;;;;;;5.00;5.00;;;;;11.49;100.00;100896.47;5012141;28;45379;-84
2023/04/02 01:16:35;;;;;;;;;7.00;5.67;;;;;11.33;100.00;100907.88;4983670;28;47317;-83
2023/04/02 01:19:13;;;;;;;;;2.67;2.67;;;;;11.13;100.00;100900.44;4985986;28;45662;-84
2023/04/02 01:21:52;;;;;;;;;5.00;5.00;;;;;11.06;100.00;100898.75;4982054;28;45443;-84
2023/04/02 01:24:19;;;;;;;;;5.00;4.00;;;;;11.09;100.00;100890.97;5011967;28;45503;-84
2023/04/02 01:27:07;;;;;;;;;4.00;4.00;;;;;11.10;100.00;100898.13;4995022;28;47329;-83
2023/04/02 01:30:04;;;;;;;;;7.00;6.00;;;;;11.09;100.00;100893.72;4982579;28;45834;-85
2023/04/02 01:32:30;;;;;;;;;2.00;2.00;;;;;10.99;100.00;100871.31;4987379;28;45716;-84
2023/04/02 01:34:57;;;;;;;;;7.33;7.33;;;;;11.17;100.00;100897.28;5007405;28;45539;-84
2023/04/02 01:37:31;;;;;;;;;2.67;2.67;;;;;11.17;100.00;100891.78;5010432;28;45516;-85
2023/04/02 01:40:05;;;;;;;;;6.00;3.00;;;;;11.26;100.00;100899.63;4998588;28;45422;-84
2023/04/02 01:42:49;;;;;;;;;3.00;3.00;;;;;11.22;100.00;100883.78;5000563;28;45369;-86
2023/04/02 01:45:20;;;;;;;;;4.00;4.00;;;;;11.31;100.00;100904.50;4993549;28;45733;-83
2023/04/02 01:47:47;;;;;;;;;5.33;3.67;;;;;11.29;100.00;100896.47;4991735;28;45789;-82
2023/04/02 01:50:18;;;;;;;;;5.33;3.33;;;;;11.33;100.00;100907.03;4998117;28;45466;-84
2023/04/02 01:52:47;;;;;;;;;3.00;3.00;;;;;11.29;100.00;100899.22;5008244;28;45508;-83
2023/04/02 01:55:16;;;;;;;;;3.00;2.00;;;;;11.30;100.00;100905.53;5005848;28;45474;-83
2023/04/02 01:57:47;;;;;;;;;1.00;1.00;;;;;11.31;100.00;100893.50;4982581;28;45730;-82
2023/04/02 02:00:14;;;;;;;;;3.33;2.00;;;;;11.26;100.00;100912.53;5001515;28;45344;-82
2023/04/02 02:02:42;;;;;;;;;2.00;2.00;;;;;11.25;100.00;100913.56;5004765;28;45319;-81
2023/04/02 02:05:16;;;;;;;;;3.33;3.33;;;;;11.09;100.00;100893.72;5008967;28;45739;-82
2023/04/02 02:07:42;;;;;;;;;2.67;2.67;;;;;11.05;100.00;100911.66;4994572;28;46199;-83
2023/04/02 02:10:17;;;;;;;;;3.00;0.67;;;;;11.07;100.00;100926.00;5003276;28;45856;-82
2023/04/02 02:12:44;;;;;;;;;2.00;1.00;;;;;11.01;100.00;100912.28;4993158;28;45821;-82
2023/04/02 02:15:20;;;;;;;;;0.00;0.00;;;;;10.97;100.00;100921.97;4967582;28;46338;-80
2023/04/02 02:17:48;;;;;;;;;2.67;2.67;;;;;10.96;100.00;100921.13;4992676;28;47315;-81
2023/04/02 02:20:15;;;;;;;;;2.00;2.00;;;;;10.89;100.00;100929.31;5006528;28;45812;-82
2023/04/02 02:22:46;;;;;;;;;2.67;2.67;;;;;10.83;100.00;100934.81;4994726;28;45505;-81
2023/04/02 02:25:18;;;;;;;;;2.67;2.67;;;;;10.71;100.00;100934.56;4999028;28;45329;-81
2023/04/02 02:27:52;;;;;;;;;1.00;1.00;;;;;10.57;100.00;100944.63;4988793;28;48164;-81
2023/04/02 02:30:55;;;;;;;;;3.33;2.00;;;;;10.49;100.00;100945.63;4987895;28;45521;-82
2023/04/02 02:33:36;;;;;;;;;1.33;1.33;;;;;10.35;100.00;100933.75;4987663;28;45616;-82
2023/04/02 02:36:01;;;;;;;;;3.00;1.00;;;;;10.47;100.00;100953.22;4997993;28;45889;-84
2023/04/02 02:38:49;;;;;;;;;1.00;1.00;;;;;10.41;100.00;100951.28;5004904;28;46125;-82
2023/04/02 02:41:27;;;;;;;;;2.00;2.00;;;;;10.45;100.00;100959.94;4994158;28;45371;-82
2023/04/02 02:43:59;;;;;;;;;3.00;1.67;;;;;10.42;100.00;100967.53;5003392;28;45821;-80
2023/04/02 02:46:27;;;;;;;;;2.00;2.00;;;;;10.41;100.00;100971.31;4990060;28;47280;-83
2023/04/02 02:48:56;;;;;;;;;3.00;1.33;;;;;10.33;100.00;100962.38;4994710;28;45934;-80
2023/04/02 02:51:45;;;;;;;;;2.00;2.00;;;;;10.11;100.00;100932.31;4997851;28;45795;-80
2023/04/02 02:54:13;;;;;;;;;2.00;2.00;;;;;10.17;100.00;100947.94;5006820;28;45475;-82
2023/04/02 02:56:44;;;;;;;;;0.00;0.00;;;;;10.07;100.00;100956.56;5004979;28;45783;-83
2023/04/02 02:59:13;;;;;;;;;1.00;1.00;;;;;10.18;100.00;100973.44;4998885;28;46862;-84
2023/04/02 03:01:41;;;;;;;;;1.67;1.67;;;;;10.01;100.00;100948.25;4994490;28;45676;-82
2023/04/02 03:04:09;;;;;;;;;2.33;1.00;;;;;10.16;100.00;100973.66;4998733;28;45624;-84
2023/04/02 03:06:35;;;;;;;;;0.33;0.33;;;;;10.01;100.00;100954.59;4976688;28;45474;-81
2023/04/02 03:09:19;;;;;;;;;1.00;1.00;;;;;10.20;100.00;100987.81;4995302;28;45368;-80
2023/04/02 03:11:50;;;;;;;;;2.00;2.00;;;;;10.17;100.00;100983.59;4980331;28;45802;-80
2023/04/02 03:14:30;;;;;;;;;3.00;1.00;;;;;10.20;100.00;100990.56;4998344;28;45679;-78
2023/04/02 03:17:04;;;;;;;;;1.33;1.00;;;;;10.11;100.00;100956.16;4994390;28;45731;-79
2023/04/02 03:20:00;;;;;;;;;2.00;1.00;;;;;10.15;100.00;100990.31;4993517;28;45735;-79
2023/04/02 03:22:53;;;;;;;;;1.67;1.67;;;;;10.01;100.00;100973.75;5000606;28;45668;-79
2023/04/02 03:25:35;;;;;;;;;1.00;1.00;;;;;10.14;100.00;101000.44;4983580;28;45809;-78
2023/04/02 03:28:05;;;;;;;;;1.00;1.00;;;;;9.95;100.00;100971.81;5001611;28;45535;-78
2023/04/02 03:30:54;;;;;;;;;2.00;2.00;;;;;10.19;100.00;101005.31;5000379;28;45511;-77
2023/04/02 03:33:24;;;;;;;;;3.00;3.00;;;;;10.17;100.00;101012.91;4996645;28;45515;-78
2023/04/02 03:36:12;;;;;;;;;4.00;4.00;;;;;10.12;100.00;101012.63;5004862;28;45820;-78
2023/04/02 03:38:45;;;;;;;;;6.33;4.33;;;;;10.10;100.00;101020.22;4995219;28;45756;-77
2023/04/02 03:41:40;;;;;;;;;4.67;4.67;;;;;10.12;100.00;101018.09;4996014;28;46867;-78
2023/04/02 03:44:18;;;;;;;;;11.00;9.33;;;;;10.20;100.00;101029.78;5000246;28;45472;-77
2023/04/02 03:46:50;;;;;;;;;15.00;12.00;;;;;10.08;100.00;101010.28;4998974;28;45364;-78
2023/04/02 03:49:27;;;;;;;;;5.67;4.33;;;;;10.17;100.00;101027.44;4999072;28;45739;-78
2023/04/02 03:52:08;;;;;;;;;12.00;11.00;;;;;10.14;100.00;101035.22;4995176;28;45605;-78
2023/04/02 03:54:35;;;;;;;;;9.67;7.67;;;;;10.03;100.00;101015.53;4996497;28;45365;-79
2023/04/02 03:57:01;;;;;;;;;6.33;6.00;;;;;10.12;100.00;101031.81;4992498;28;45839;-77
2023/04/02 03:59:40;;;;;;;;;5.33;5.33;;;;;10.07;100.00;101040.63;4976569;28;46848;-78
2023/04/02 04:02:33;;;;;;;;;12.33;10.00;;;;;10.03;100.00;101034.72;4993181;28;46463;-78
2023/04/02 04:05:00;;;;;;;;;12.67;8.67;;;;;10.13;100.00;101055.44;4978772;28;45812;-80
2023/04/02 04:07:35;;;;;;;;;9.67;6.67;;;;;10.05;100.00;101037.25;5007766;28;45438;-78
2023/04/02 04:10:03;;;;;;;;;6.00;6.00;;;;;10.13;100.00;101039.00;5007968;28;45435;-78
2023/04/02 04:12:34;;;;;;;;;12.00;9.00;;;;;10.21;100.00;101055.31;4994899;28;46191;-79
2023/04/02 04:15:11;;;;;;;;;7.33;5.33;;;;;10.14;100.00;101051.66;4994791;28;45866;-83
2023/04/02 04:17:50;;;;;;;;;9.00;9.00;;;;;10.19;100.00;101057.38;5004830;28;45699;-78
2023/04/02 04:20:29;;;;;;;;;4.00;4.00;;;;;10.20;100.00;101065.41;4992656;28;45968;-77
2023/04/02 04:22:54;;;;;;;;;11.67;9.33;;;;;10.16;100.00;101050.41;5002984;28;46303;-79
2023/04/02 04:25:29;;;;;;;;;9.33;9.33;;;;;10.16;100.00;101064.09;5010461;28;45543;-80
2023/04/02 04:28:19;;;;;;;;;15.33;11.67;;;;;10.11;100.00;101076.72;4989482;28;45431;-78
2023/04/02 04:31:02;;;;;;;;;9.67;7.00;;;;;10.03;100.00;101073.06;5001568;28;45309;-76
2023/04/02 04:33:38;;;;;;;;;12.33;11.00;;;;;10.07;100.00;101084.47;5001892;28;45472;-77
2023/04/02 04:36:05;;;;;;;;;13.00;11.67;;;;;10.03;100.00;101069.47;5002167;28;45412;-77
2023/04/02 04:38:38;;;;;;;;;11.67;11.67;;;;;10.04;100.00;101080.25;5003752;28;44788;-78
2023/04/02 04:41:15;;;;;;;;;12.33;9.67;;;;;10.08;100.00;101088.91;5004335;28;45663;-78
2023/04/02 04:43:49;;;;;;;;;11.00;11.00;;;;;10.12;100.00;101095.72;5006914;28;48095;-77
2023/04/02 04:46:44;;;;;;;;;13.33;13.33;;;;;10.15;100.00;101097.19;4984422;28;45744;-78
2023/04/02 04:49:26;;;;;;;;;15.33;9.00;;;;;10.09;100.00;101090.63;4987258;28;45448;-79
2023/04/02 04:51:55;;;;;;;;;10.67;9.33;;;;;10.11;100.00;101115.94;4993804;28;45827;-77
2023/04/02 04:54:25;;;;;;;;;13.00;11.33;;;;;10.07;100.00;101107.28;4975561;28;47120;-78
2023/04/02 04:56:56;;;;;;;;;12.00;10.00;;;;;9.98;100.00;101097.47;4993798;28;45736;-76
2023/04/02 04:59:27;;;;;;;;;11.00;9.67;;;;;9.98;100.00;101086.50;4993875;28;45500;-77
2023/04/02 05:02:18;;;;;;;;;10.00;9.00;;;;;10.04;100.00;101115.88;4998340;28;45740;-78
2023/04/02 05:04:49;;;;;;;;;18.33;11.33;;;;;10.04;100.00;101107.66;4986810;28;46137;-79
2023/04/02 05:07:24;;;;;;;;;16.00;9.33;;;;;10.06;100.00;101121.16;4997546;28;45447;-78
2023/04/02 05:10:02;;;;;;;;;13.33;10.00;;;;;10.01;100.00;101131.84;5003945;28;45409;-77
2023/04/02 05:12:40;;;;;;;;;12.33;9.00;;;;;9.97;100.00;101133.28;4993200;28;45809;-77
2023/04/02 05:15:19;;;;;;;;;10.00;8.67;;;;;9.92;100.00;101136.59;4995370;28;46616;-78
2023/04/02 05:17:49;;;;;;;;;9.00;9.00;;;;;9.91;100.00;101134.94;4991779;28;45672;-77
2023/04/02 05:20:25;;;;;;;;;15.00;15.00;;;;;9.91;100.00;101134.94;4981934;28;45636;-77
2023/04/02 05:22:57;;;;;;;;;12.67;9.00;;;;;9.92;100.00;101153.03;4975832;28;46657;-78
2023/04/02 05:25:26;;;;;;;;;9.67;9.67;;;;;9.98;100.00;101152.25;4993290;28;45831;-77
2023/04/02 05:28:18;;;;;;;;;13.67;13.33;;;;;9.96;100.00;101143.41;4989629;28;45618;-77
2023/04/02 05:30:53;;;;;;;;;12.33;11.67;;;;;9.92;100.00;101142.09;5005011;28;45794;-76
2023/04/02 05:33:28;;;;;;;;;10.00;7.00;;;;;9.97;100.00;101147.84;4993063;28;45468;-77
2023/04/02 05:36:10;;;;;;;;;11.00;9.67;;;;;9.95;100.00;101165.50;5000738;28;46427;-79
2023/04/02 05:38:39;;;;;;;;;11.00;8.33;;;;;9.91;100.00;101165.06;4973478;28;45731;-80
2023/04/02 05:41:30;;;;;;;;;11.67;9.00;;;;;9.89;100.00;101168.00;4996042;28;45657;-75
2023/04/02 05:44:09;;;;;;;;;9.00;9.00;;;;;9.93;100.00;101179.41;5007231;28;45658;-73
2023/04/02 05:47:00;;;;;;;;;11.33;11.00;;;;;9.99;100.00;101192.31;4983386;28;46475;-76
2023/04/02 05:49:54;;;;;;;;;11.33;10.00;;;;;9.99;100.00;101169.56;4963646;28;45757;-77
2023/04/02 05:52:32;;;;;;;;;13.67;10.33;;;;;10.05;100.00;101183.31;4992575;28;45645;-75
2023/04/02 05:55:00;;;;;;;;;9.00;9.00;;;;;10.04;100.00;101195.34;4986862;28;45738;-76
2023/04/02 05:57:37;;;;;;;;;11.00;11.00;;;;;9.97;100.00;101188.94;4976056;28;47023;-76
2023/04/02 06:00:12;;;;;;;;;10.33;8.33;;;;;9.99;100.00;101207.94;4992449;28;45759;-79
2023/04/02 06:03:01;;;;;;;;;11.00;8.00;;;;;10.00;100.00;101213.22;4985140;28;45803;-75
2023/04/02 06:05:35;;;;;;;;;10.00;7.00;;;;;10.01;100.00;101205.84;4999498;28;45677;-75
2023/04/02 06:08:26;;;;;;;;;7.67;6.33;;;;;10.00;100.00;101201.38;4984447;28;45969;-77
2023/04/02 06:11:23;;;;;;;;;7.00;6.00;;;;;9.97;100.00;101199.91;4973646;28;45618;-78
2023/04/02 06:13:49;;;;;;;;;9.00;8.00;;;;;9.96;100.00;101209.16;4983170;28;45683;-77
2023/04/02 06:16:15;;;;;;;;;9.67;8.00;;;;;9.97;100.00;101227.31;5005976;28;45849;-77
2023/04/02 06:18:42;;;;;;;;;5.67;5.67;;;;;9.86;100.00;101192.19;5004374;28;45552;-76
2023/04/02 06:21:14;;;;;;;;;5.67;5.67;;;;;9.83;100.00;101209.00;4991867;28;46099;-77
2023/04/02 06:23:45;;;;;;;;;7.33;7.00;;;;;9.90;100.00;101234.59;4997107;28;45483;-76
2023/04/02 06:26:18;;;;;;;;;7.33;6.33;;;;;9.98;100.00;101233.63;4983042;28;45776;-77
2023/04/02 06:28:56;;;;;;;;;14.33;9.33;;;;;10.04;100.00;101243.81;4985809;28;45381;-78
2023/04/02 06:31:34;;;;;;;;;7.33;6.00;;;;;10.01;100.00;101228.59;4990214;28;45499;-77
2023/04/02 06:33:59;;;;;;;;;7.00;7.00;;;;;9.98;100.00;101237.19;4985276;28;45885;-78
2023/04/02 06:36:27;;;;;;;;;8.00;6.00;;;;;9.93;100.00;101220.50;4989371;28;45911;-78
2023/04/02 06:38:57;;;;;;;;;8.33;7.67;;;;;9.99;100.00;101236.16;4988078;28;46150;-76
2023/04/02 06:41:24;;;;;;;;;10.00;8.67;;;;;10.06;100.00;101252.72;4979022;28;45558;-79
2023/04/02 06:44:06;;;;;;;;;7.00;6.33;;;;;10.03;100.00;101248.44;4986193;28;45549;-79
2023/04/02 06:46:38;;;;;;;;;9.00;8.67;;;;;10.05;100.00;101259.22;4982443;28;45834;-77
2023/04/02 06:49:12;;;;;;;;;9.67;8.33;;;;;10.07;100.00;101249.78;4979184;28;47897;-79
2023/04/02 06:51:40;;;;;;;;;6.33;6.33;;;;;10.09;100.00;101246.84;4984803;28;45570;-79
2023/04/02 06:54:13;;;;;;;;;7.67;7.00;;;;;10.24;100.00;101255.00;4993292;28;45528;-76
2023/04/02 06:56:45;;;;;;;;;5.00;5.00;;;;;10.12;100.00;101254.66;4997518;28;45754;-79
2023/04/02 06:59:11;;;;;;;;;7.67;5.67;;;;;10.12;100.00;101259.28;4984769;28;47503;-78
2023/04/02 07:01:59;;;;;;;;;9.67;8.67;;;;;10.18;100.00;101280.44;5000099;28;45823;-76
2023/04/02 07:04:26;;;;;;;;;8.33;8.33;;;;;10.11;100.00;101263.91;5002810;28;45491;-77
2023/04/02 07:06:52;;;;;;;;;8.33;8.33;;;;;10.25;100.00;101278.63;4999569;28;45907;-78
2023/04/02 07:09:17;;;;;;;;;7.33;7.33;;;;;10.27;100.00;101290.25;5001246;28;45765;-80
2023/04/02 07:11:44;;;;;;;;;10.00;9.00;;;;;10.17;100.00;101265.03;5001543;28;45709;-77
2023/04/02 07:14:11;;;;;;;;;12.33;11.33;;;;;10.32;100.00;101296.00;5005053;28;45871;-77
2023/04/02 07:16:38;;;;;;;;;12.67;9.33;;;;;10.28;100.00;101289.19;5002314;28;46395;-77
2023/04/02 07:19:04;;;;;;;;;12.67;9.33;;;;;10.24;100.00;101285.16;4982040;28;46617;-78
2023/04/02 07:21:29;;;;;;;;;6.00;6.00;;;;;10.40;100.00;101308.75;4993694;28;45885;-81
2023/04/02 07:23:55;;;;;;;;;12.00;9.00;;;;;10.25;100.00;101278.63;5001826;28;46023;-80
2023/04/02 07:26:25;;;;;;;;;10.00;8.67;;;;;10.40;100.00;101306.91;4985691;28;46184;-81
2023/04/02 07:28:51;;;;;;;;;9.00;8.00;;;;;10.18;100.00;101288.66;4979246;28;46675;-80
2023/04/02 07:31:27;;;;;;;;;12.67;11.33;;;;;10.39;100.00;101324.38;4983241;28;45677;-81
2023/04/02 07:33:58;;;;;;;;;13.00;11.00;;;;;10.40;100.00;101336.19;4982352;28;45930;-79
2023/04/02 07:36:25;;;;;;;;;11.00;8.00;;;;;10.33;100.00;101330.63;4980967;28;46087;-81
2023/04/02 07:38:50;;;;;;;;;13.00;12.00;;;;;10.38;100.00;101339.13;4977808;28;47209;-80
2023/04/02 07:41:18;;;;;;;;;10.67;10.67;;;;;10.32;100.00;101319.84;4999005;28;45799;-80
2023/04/02 07:43:47;;;;;;;;;14.00;12.33;;;;;10.38;100.00;101339.13;5002514;28;45681;-82
2023/04/02 07:46:15;;;;;;;;;21.00;20.33;;;;;10.32;100.00;101312.44;4981733;28;45954;-81
2023/04/02 07:48:41;;;;;;;;;11.33;10.00;;;;;10.34;100.00;101318.59;4996285;28;46575;-81
2023/04/02 07:51:24;;;;;;;;;13.67;11.33;;;;;10.36;100.00;101335.72;5003143;28;45561;-81
2023/04/02 07:53:54;;;;;;;;;34.50;29.25;;;;;10.28;100.00;101300.16;5002017;28;45523;-80
2023/04/02 07:56:20;;;;;;;;;51.75;43.25;;;;;10.61;100.00;101349.06;4995509;28;46230;-80
2023/04/02 07:58:46;;;;;;;;;14.67;13.67;;;;;10.46;100.00;101338.16;4995822;28;46739;-80
2023/04/02 08:01:18;;;;;;;;;40.75;35.50;;;;;10.57;100.00;101369.72;4997596;28;46158;-81
2023/04/02 08:03:44;;;;;;;;;38.33;34.33;;;;;10.64;100.00;101376.13;4997461;28;46020;-80
2023/04/02 08:06:10;;;;;;;;;33.33;30.00;;;;;10.52;100.00;101355.72;4999979;28;45592;-82
2023/04/02 08:08:37;;;;;;;;;12.67;12.67;;;;;10.70;100.00;101380.84;4983855;28;45724;-81
2023/04/02 08:11:02;;;;;;;;;22.33;19.00;;;;;10.74;100.00;101393.09;4986610;28;46052;-79
2023/04/02 08:13:27;;;;;;;;;12.00;12.00;;;;;10.61;100.00;101376.50;5000967;28;45555;-83
2023/04/02 08:15:53;;;;;;;;;19.00;14.00;;;;;10.70;100.00;101402.78;4995905;28;45519;-81
2023/04/02 08:18:21;;;;;;;;;18.33;18.33;;;;;10.67;100.00;101408.63;4984074;28;48119;-81
2023/04/02 08:20:47;;;;;;;;;24.33;17.33;;;;;10.62;100.00;101400.16;4983144;28;46008;-80
2023/04/02 08:23:15;;;;;;;;;26.33;21.00;;;;;10.32;100.00;101367.28;5002496;28;46018;-79
2023/04/02 08:25:41;;;;;;;;;22.67;18.67;;;;;10.41;100.00;101376.28;5006461;28;45943;-81
2023/04/02 08:28:06;;;;;;;;;16.33;14.00;;;;;10.53;100.00;101382.97;5002493;28;46246;-81
2023/04/02 08:30:32;;;;;;;;;17.00;17.00;;;;;10.73;100.00;101399.66;4986314;28;45741;-79
2023/04/02 08:32:58;;;;;;;;;26.67;23.00;;;;;10.66;100.00;101396.00;5002878;28;45559;-80
2023/04/02 08:35:26;;;;;;;;;21.00;19.33;;;;;10.77;100.00;101389.13;4997688;28;45856;-82
2023/04/02 08:37:53;;;;;;;;;23.33;22.00;;;;;10.72;100.00;101383.41;4980928;28;46809;-79
2023/04/02 08:40:26;;;;;;;;;24.00;22.67;;;;;10.79;100.00;101378.81;5001003;28;46095;-80
2023/04/02 08:43:07;;;;;;;;;30.33;27.33;;;;;11.01;100.00;101403.53;4999454;28;45546;-81
2023/04/02 08:45:51;;;;;;;;;24.33;19.00;;;;;11.04;100.00;101414.13;4998595;28;45778;-80
2023/04/02 08:48:17;;;;;;;;;13.33;13.00;;;;;11.13;100.00;101423.91;4993998;28;46319;-83
2023/04/02 08:50:44;;;;;;;;;21.00;21.00;;;;;11.20;100.00;101427.59;4994078;28;46334;-79
2023/04/02 08:53:18;;;;;;;;;19.67;19.67;;;;;11.06;100.00;101407.41;5002412;28;45919;-78
2023/04/02 08:56:07;;;;;;;;;14.00;11.67;;;;;11.27;100.00;101439.50;4974230;28;45531;-78
2023/04/02 08:58:54;;;;;;;;;11.00;11.00;;;;;11.19;100.00;101450.59;4988345;28;46872;-78
2023/04/02 09:01:33;;;;;;;;;11.00;11.00;;;;;11.12;100.00;101450.53;4967453;28;45855;-81
2023/04/02 09:03:59;;;;;;;;;14.00;13.33;;;;;11.12;100.00;101447.78;4997920;28;45525;-83
2023/04/02 09:06:28;;;;;;;;;16.00;14.00;;;;;11.18;100.00;101465.34;4997322;28;45585;-82
2023/04/02 09:08:55;;;;;;;;;13.00;11.67;;;;;11.17;100.00;101468.28;4992799;28;46527;-85
2023/04/02 09:11:33;;;;;;;;;13.67;13.67;;;;;11.18;100.00;101472.75;4994259;28;45459;-84
2023/04/02 09:14:04;;;;;;;;;9.00;9.00;;;;;11.24;100.00;101469.22;4983295;28;45674;-83
2023/04/02 09:16:37;;;;;;;;;15.00;12.00;;;;;11.34;100.00;101463.41;4996476;28;45705;-86
2023/04/02 09:19:14;;;;;;;;;12.67;12.67;;;;;11.37;100.00;101452.03;4989718;28;45507;-80
2023/04/02 09:21:57;;;;;;;;;16.33;9.33;;;;;11.57;100.00;101474.19;4990885;28;45821;-80
2023/04/02 09:24:22;;;;;;;;;12.33;8.67;;;;;11.62;100.00;101471.72;4977135;28;45848;-83
2023/04/02 09:26:47;;;;;;;;;11.67;9.67;;;;;11.37;100.00;101452.88;4989840;28;47158;-82
2023/04/02 09:29:13;;;;;;;;;11.00;9.33;;;;;11.59;100.00;101483.09;4992348;28;47210;-82
2023/04/02 09:31:44;;;;;;;;;11.33;11.33;;;;;11.51;100.00;101456.59;4976518;28;45919;-84
2023/04/02 09:34:29;;;;;;;;;12.67;11.00;;;;;11.66;100.00;101490.34;4987916;28;45639;-81
2023/04/02 09:36:55;;;;;;;;;12.33;12.00;;;;;11.76;100.00;101495.47;4972003;28;46035;-81
2023/04/02 09:39:25;;;;;;;;;10.33;9.33;;;;;11.90;100.00;101490.97;4964601;28;47854;-82
2023/04/02 09:41:51;;;;;;;;;14.67;14.00;;;;;11.99;100.00;101494.41;4987996;28;46112;-80
2023/04/02 09:44:22;;;;;;;;;13.33;12.67;;;;;12.05;100.00;101493.66;4990627;28;45659;-83
2023/04/02 09:46:58;;;;;;;;;8.33;5.00;;;;;11.97;100.00;101505.63;4980910;28;45678;-83
2023/04/02 09:49:27;;;;;;;;;14.00;10.67;;;;;11.82;100.00;101508.44;4972971;28;46204;-82
2023/04/02 09:52:05;;;;;;;;;14.33;9.67;;;;;11.71;100.00;101511.72;4993361;28;45693;-82
2023/04/02 09:54:30;;;;;;;;;15.67;11.00;;;;;11.81;100.00;101527.88;4989865;28;45463;-81
2023/04/02 09:57:01;;;;;;;;;16.33;9.33;;;;;11.81;100.00;101511.38;4990161;28;46659;-82
2023/04/02 09:59:27;;;;;;;;;13.00;11.33;;;;;11.81;100.00;101527.88;4990751;28;45522;-82
2023/04/02 10:01:52;;;;;;;;;9.00;9.00;;;;;11.91;100.00;101524.78;4990283;28;45476;-82
2023/04/02 10:04:46;;;;;;;;;10.33;10.00;;;;;12.09;100.00;101530.66;4976238;28;45380;-82
2023/04/02 10:07:29;;;;;;;;;13.33;10.00;;;;;12.13;100.00;101542.13;4989778;28;45550;-82
2023/04/02 10:10:15;;;;;;;;;10.00;9.00;;;;;12.04;100.00;101537.84;4979300;28;47064;-80
2023/04/02 10:12:42;;;;;;;;;14.00;10.00;;;;;12.06;100.00;101538.47;4992790;28;45613;-81
2023/04/02 10:15:15;;;;;;;;;17.00;10.33;;;;;12.07;100.00;101538.28;4989417;28;45576;-79
2023/04/02 10:17:42;;;;;;;;;13.00;8.00;;;;;12.28;100.00;101553.88;4989188;28;45803;-81
2023/04/02 10:20:18;;;;;;;;;10.33;9.00;;;;;12.32;100.00;101537.81;4991181;28;46188;-80
2023/04/02 10:22:45;;;;;;;;;14.00;11.00;;;;;12.39;100.00;101560.72;4977618;28;45596;-82
2023/04/02 10:25:15;;;;;;;;;11.67;8.00;;;;;12.38;100.00;101561.78;4989954;28;45814;-82
2023/04/02 10:27:48;;;;;;;;;11.00;8.33;;;;;12.29;100.00;101546.47;4965499;28;46040;-82
2023/04/02 10:30:32;;;;;;;;;13.33;10.00;;;;;12.41;100.00;101566.00;4991552;28;46182;-81
2023/04/02 10:33:18;;;;;;;;;11.67;9.00;;;;;12.35;100.00;101564.94;4972531;28;45668;-82
2023/04/02 10:35:53;;;;;;;;;13.33;10.00;;;;;12.26;100.00;101544.13;4973452;28;45628;-81
2023/04/02 10:38:32;;;;;;;;;16.67;11.67;;;;;12.45;100.00;101573.66;4985092;28;45851;-82
2023/04/02 10:41:36;;;;;;;;;11.33;10.33;;;;;12.54;100.00;101586.25;4988158;28;45803;-82
2023/04/02 10:44:14;;;;;;;;;12.00;11.00;;;;;12.62;100.00;101562.34;4992903;28;45930;-82
2023/04/02 10:46:59;;;;;;;;;13.00;9.67;;;;;12.87;100.00;101579.22;5001249;28;45578;-83
2023/04/02 10:50:25;;;;;;;;;10.67;8.67;;;;;12.97;100.00;101573.34;5001945;28;45564;-81
2023/04/02 10:53:08;;;;;;;;;16.33;12.67;;;;;13.07;100.00;101591.19;4975763;28;45476;-81
2023/04/02 10:55:41;;;;;;;;;27.33;22.00;;;;;13.11;100.00;101579.75;4990289;28;45508;-80
2023/04/02 10:58:42;;;;;;;;;15.00;11.67;;;;;13.11;100.00;101583.34;4983495;28;46805;-84
2023/04/02 11:01:21;;;;;;;;;15.67;13.67;;;;;13.31;100.00;101580.69;4995762;28;45968;-82
2023/04/02 11:03:58;;;;;;;;;18.67;15.67;;;;;13.28;100.00;101575.59;4990615;28;45559;-83
2023/04/02 11:06:38;;;;;;;;;15.33;13.33;;;;;13.34;100.00;101604.25;4996550;28;45452;-83
2023/04/02 11:09:17;;;;;;;;;15.00;15.00;;;;;13.20;100.00;101595.91;4993982;28;45508;-83
2023/04/02 11:11:47;;;;;;;;;19.67;15.00;;;;;13.04;100.00;101590.75;4970355;28;45763;-80
2023/04/02 11:14:19;;;;;;;;;18.67;14.00;;;;;12.99;100.00;101596.00;4988090;28;46288;-81
2023/04/02 11:16:47;;;;;;;;;19.00;16.67;;;;;13.03;100.00;101611.06;4994692;28;45436;-81
2023/04/02 11:19:16;;;;;;;;;18.00;14.67;;;;;13.07;100.00;101609.63;4990958;28;45550;-80
2023/04/02 11:21:47;;;;;;;;;19.67;13.00;;;;;13.17;100.00;101609.22;4987187;28;45796;-80
2023/04/02 11:24:31;;;;;;;;;20.33;17.00;;;;;13.30;100.00;101613.97;4977821;28;46053;-79
2023/04/02 11:27:09;;;;;;;;;15.33;13.00;;;;;13.38;100.00;101608.28;4979717;28;45898;-80
2023/04/02 11:29:39;;;;;;;;;13.00;10.67;;;;;13.23;100.00;101622.19;4992789;28;45460;-80
2023/04/02 11:32:20;;;;;;;;;14.00;13.00;;;;;13.07;100.00;101620.63;4986654;28;46729;-80
2023/04/02 11:34:46;;;;;;;;;14.33;14.00;;;;;12.95;100.00;101614.84;5003403;28;45844;-83
2023/04/02 11:37:42;;;;;;;;;14.33;11.33;;;;;12.85;100.00;101612.44;5006278;28;45564;-83
2023/04/02 11:40:12;;;;;;;;;13.67;9.67;;;;;12.85;100.00;101620.72;4995913;28;45408;-83
2023/04/02 11:42:41;;;;;;;;;13.33;11.00;;;;;13.02;100.00;101628.66;4997276;28;46331;-84
2023/04/02 11:45:32;;;;;;;;;14.33;12.67;;;;;13.22;100.00;101626.00;4993242;28;46220;-83